sensor_id;sensor_type;location;lat;lon;timestamp;P1;durP1;ratioP1;P2;durP2;ratioP2
75297;SDS011;63896;45.990;18.688;2024-02-23T00:01:44;6.13;;;3.42;;
75297;SDS011;63896;45.990;18.688;2024-02-23T00:04:47;6.63;;;3.42;;
75297;SDS011;63896;45.990;18.688;2024-02-23T00:07:50;7.80;;;3.63;;
75297;SDS011;63896;45.990;18.688;2024-02-23T00:10:52;7.33;;;3.63;;
75297;SDS011;63896;45.990;18.688;2024-02-23T00:13:55;7.63;;;2.72;;
75297;SDS011;63896;45.990;18.688;2024-02-23T00:16:58;7.30;;;3.55;;
75297;SDS011;63896;45.990;18.688;2024-02-23T00:20:04;8.52;;;4.40;;
75297;SDS011;63896;45.990;18.688;2024-02-23T00:23:07;8.88;;;3.00;;
75297;SDS011;63896;45.990;18.688;2024-02-23T00:26:09;5.53;;;2.67;;
75297;SDS011;63896;45.990;18.688;2024-02-23T00:29:12;6.93;;;3.17;;
75297;SDS011;63896;45.990;18.688;2024-02-23T00:32:15;7.05;;;3.30;;
75297;SDS011;63896;45.990;18.688;2024-02-23T00:35:18;5.70;;;2.78;;
75297;SDS011;63896;45.990;18.688;2024-02-23T00:38:21;5.82;;;3.10;;
75297;SDS011;63896;45.990;18.688;2024-02-23T00:41:24;7.67;;;2.43;;
75297;SDS011;63896;45.990;18.688;2024-02-23T00:44:27;6.97;;;2.70;;
75297;SDS011;63896;45.990;18.688;2024-02-23T00:47:30;6.97;;;3.22;;
75297;SDS011;63896;45.990;18.688;2024-02-23T00:50:33;5.15;;;2.45;;
75297;SDS011;63896;45.990;18.688;2024-02-23T00:53:35;8.18;;;3.15;;
75297;SDS011;63896;45.990;18.688;2024-02-23T00:56:38;8.13;;;3.33;;
75297;SDS011;63896;45.990;18.688;2024-02-23T00:59:52;7.00;;;2.92;;
75297;SDS011;63896;45.990;18.688;2024-02-23T01:02:54;4.50;;;2.70;;
75297;SDS011;63896;45.990;18.688;2024-02-23T01:05:57;4.35;;;2.67;;
75297;SDS011;63896;45.990;18.688;2024-02-23T01:09:00;6.47;;;2.67;;
75297;SDS011;63896;45.990;18.688;2024-02-23T01:12:03;6.50;;;2.57;;
75297;SDS011;63896;45.990;18.688;2024-02-23T01:15:06;6.40;;;3.17;;
75297;SDS011;63896;45.990;18.688;2024-02-23T01:18:09;4.78;;;2.95;;
75297;SDS011;63896;45.990;18.688;2024-02-23T01:21:12;6.05;;;2.85;;
75297;SDS011;63896;45.990;18.688;2024-02-23T01:24:16;6.97;;;3.22;;
75297;SDS011;63896;45.990;18.688;2024-02-23T01:27:18;6.20;;;2.53;;
75297;SDS011;63896;45.990;18.688;2024-02-23T01:30:21;6.70;;;2.75;;
75297;SDS011;63896;45.990;18.688;2024-02-23T01:33:24;5.43;;;2.35;;
75297;SDS011;63896;45.990;18.688;2024-02-23T01:36:27;5.28;;;2.53;;
75297;SDS011;63896;45.990;18.688;2024-02-23T01:39:30;6.07;;;2.88;;
75297;SDS011;63896;45.990;18.688;2024-02-23T01:42:32;6.13;;;2.67;;
75297;SDS011;63896;45.990;18.688;2024-02-23T01:45:35;7.22;;;2.92;;
75297;SDS011;63896;45.990;18.688;2024-02-23T01:48:38;4.85;;;2.88;;
75297;SDS011;63896;45.990;18.688;2024-02-23T01:51:41;6.03;;;3.10;;
75297;SDS011;63896;45.990;18.688;2024-02-23T01:54:44;6.30;;;3.33;;
75297;SDS011;63896;45.990;18.688;2024-02-23T01:57:47;8.17;;;3.50;;
75297;SDS011;63896;45.990;18.688;2024-02-23T02:00:51;6.00;;;3.33;;
75297;SDS011;63896;45.990;18.688;2024-02-23T02:03:54;9.18;;;3.00;;
75297;SDS011;63896;45.990;18.688;2024-02-23T02:06:59;7.07;;;2.95;;
75297;SDS011;63896;45.990;18.688;2024-02-23T02:10:04;6.95;;;3.28;;
75297;SDS011;63896;45.990;18.688;2024-02-23T02:13:09;5.80;;;3.37;;
75297;SDS011;63896;45.990;18.688;2024-02-23T02:16:12;6.78;;;3.30;;
75297;SDS011;63896;45.990;18.688;2024-02-23T02:19:15;8.60;;;3.63;;
75297;SDS011;63896;45.990;18.688;2024-02-23T02:22:18;9.13;;;3.30;;
75297;SDS011;63896;45.990;18.688;2024-02-23T02:25:21;6.78;;;3.00;;
75297;SDS011;63896;45.990;18.688;2024-02-23T02:28:24;7.30;;;3.27;;
75297;SDS011;63896;45.990;18.688;2024-02-23T02:31:28;7.78;;;3.42;;
75297;SDS011;63896;45.990;18.688;2024-02-23T02:34:31;7.28;;;3.78;;
75297;SDS011;63896;45.990;18.688;2024-02-23T02:37:34;6.18;;;3.58;;
75297;SDS011;63896;45.990;18.688;2024-02-23T02:40:37;8.20;;;3.35;;
75297;SDS011;63896;45.990;18.688;2024-02-23T02:43:40;7.57;;;3.60;;
75297;SDS011;63896;45.990;18.688;2024-02-23T02:46:43;6.72;;;3.40;;
75297;SDS011;63896;45.990;18.688;2024-02-23T02:49:45;6.57;;;3.35;;
75297;SDS011;63896;45.990;18.688;2024-02-23T02:52:48;8.23;;;3.97;;
75297;SDS011;63896;45.990;18.688;2024-02-23T02:55:51;7.88;;;3.80;;
75297;SDS011;63896;45.990;18.688;2024-02-23T02:58:54;6.47;;;3.93;;
75297;SDS011;63896;45.990;18.688;2024-02-23T03:01:57;9.93;;;4.28;;
75297;SDS011;63896;45.990;18.688;2024-02-23T03:04:59;14.40;;;4.82;;
75297;SDS011;63896;45.990;18.688;2024-02-23T03:08:02;8.57;;;3.78;;
75297;SDS011;63896;45.990;18.688;2024-02-23T03:11:05;14.40;;;6.87;;
75297;SDS011;63896;45.990;18.688;2024-02-23T03:14:08;11.33;;;5.10;;
75297;SDS011;63896;45.990;18.688;2024-02-23T03:17:13;7.93;;;3.75;;
75297;SDS011;63896;45.990;18.688;2024-02-23T03:20:16;7.43;;;3.60;;
75297;SDS011;63896;45.990;18.688;2024-02-23T03:23:19;9.10;;;3.92;;
75297;SDS011;63896;45.990;18.688;2024-02-23T03:26:22;10.05;;;4.30;;
75297;SDS011;63896;45.990;18.688;2024-02-23T03:29:25;9.23;;;4.57;;
75297;SDS011;63896;45.990;18.688;2024-02-23T03:32:31;9.88;;;4.50;;
75297;SDS011;63896;45.990;18.688;2024-02-23T03:35:39;9.80;;;3.92;;
75297;SDS011;63896;45.990;18.688;2024-02-23T03:38:42;12.73;;;5.00;;
75297;SDS011;63896;45.990;18.688;2024-02-23T03:41:44;15.85;;;7.25;;
75297;SDS011;63896;45.990;18.688;2024-02-23T03:44:47;15.50;;;5.97;;
75297;SDS011;63896;45.990;18.688;2024-02-23T03:47:50;14.10;;;6.22;;
75297;SDS011;63896;45.990;18.688;2024-02-23T03:50:53;15.02;;;6.47;;
75297;SDS011;63896;45.990;18.688;2024-02-23T03:53:56;9.38;;;4.93;;
75297;SDS011;63896;45.990;18.688;2024-02-23T03:56:59;12.02;;;6.30;;
75297;SDS011;63896;45.990;18.688;2024-02-23T04:00:02;11.77;;;6.67;;
75297;SDS011;63896;45.990;18.688;2024-02-23T04:03:12;14.07;;;7.70;;
75297;SDS011;63896;45.990;18.688;2024-02-23T04:06:18;11.68;;;6.20;;
75297;SDS011;63896;45.990;18.688;2024-02-23T04:09:21;10.05;;;6.05;;
75297;SDS011;63896;45.990;18.688;2024-02-23T04:12:23;9.20;;;5.97;;
75297;SDS011;63896;45.990;18.688;2024-02-23T04:15:27;10.03;;;5.77;;
75297;SDS011;63896;45.990;18.688;2024-02-23T04:18:29;10.88;;;5.88;;
75297;SDS011;63896;45.990;18.688;2024-02-23T04:21:33;10.20;;;5.40;;
75297;SDS011;63896;45.990;18.688;2024-02-23T04:24:38;13.15;;;5.38;;
75297;SDS011;63896;45.990;18.688;2024-02-23T04:27:42;9.63;;;5.47;;
75297;SDS011;63896;45.990;18.688;2024-02-23T04:30:45;8.37;;;5.00;;
75297;SDS011;63896;45.990;18.688;2024-02-23T04:33:48;10.68;;;5.78;;
75297;SDS011;63896;45.990;18.688;2024-02-23T04:36:52;9.68;;;5.63;;
75297;SDS011;63896;45.990;18.688;2024-02-23T04:39:55;10.50;;;5.82;;
75297;SDS011;63896;45.990;18.688;2024-02-23T04:42:58;9.98;;;5.63;;
75297;SDS011;63896;45.990;18.688;2024-02-23T04:46:00;9.17;;;4.90;;
75297;SDS011;63896;45.990;18.688;2024-02-23T04:49:03;11.57;;;6.25;;
75297;SDS011;63896;45.990;18.688;2024-02-23T04:52:07;10.63;;;5.88;;
75297;SDS011;63896;45.990;18.688;2024-02-23T04:55:11;10.60;;;5.40;;
75297;SDS011;63896;45.990;18.688;2024-02-23T04:58:14;9.30;;;5.37;;
75297;SDS011;63896;45.990;18.688;2024-02-23T05:01:16;14.73;;;6.20;;
75297;SDS011;63896;45.990;18.688;2024-02-23T05:04:19;13.07;;;6.68;;
75297;SDS011;63896;45.990;18.688;2024-02-23T05:07:22;10.27;;;5.85;;
75297;SDS011;63896;45.990;18.688;2024-02-23T05:10:25;10.68;;;5.50;;
75297;SDS011;63896;45.990;18.688;2024-02-23T05:13:28;13.10;;;5.67;;
75297;SDS011;63896;45.990;18.688;2024-02-23T05:16:31;9.10;;;5.27;;
75297;SDS011;63896;45.990;18.688;2024-02-23T05:19:34;9.43;;;5.25;;
75297;SDS011;63896;45.990;18.688;2024-02-23T05:22:38;11.50;;;5.60;;
75297;SDS011;63896;45.990;18.688;2024-02-23T05:25:43;10.32;;;6.18;;
75297;SDS011;63896;45.990;18.688;2024-02-23T05:28:46;12.68;;;5.85;;
75297;SDS011;63896;45.990;18.688;2024-02-23T05:31:51;9.40;;;4.73;;
75297;SDS011;63896;45.990;18.688;2024-02-23T05:34:54;9.45;;;4.78;;
75297;SDS011;63896;45.990;18.688;2024-02-23T05:37:59;11.27;;;5.85;;
75297;SDS011;63896;45.990;18.688;2024-02-23T05:41:02;10.40;;;5.82;;
75297;SDS011;63896;45.990;18.688;2024-02-23T05:44:07;9.15;;;5.13;;
75297;SDS011;63896;45.990;18.688;2024-02-23T05:47:10;9.17;;;4.93;;
75297;SDS011;63896;45.990;18.688;2024-02-23T05:50:13;12.65;;;6.00;;
75297;SDS011;63896;45.990;18.688;2024-02-23T05:53:16;14.80;;;7.90;;
75297;SDS011;63896;45.990;18.688;2024-02-23T05:56:19;18.98;;;9.80;;
75297;SDS011;63896;45.990;18.688;2024-02-23T05:59:22;14.35;;;7.22;;
75297;SDS011;63896;45.990;18.688;2024-02-23T06:02:24;18.27;;;7.73;;
75297;SDS011;63896;45.990;18.688;2024-02-23T06:05:28;19.15;;;8.05;;
75297;SDS011;63896;45.990;18.688;2024-02-23T06:08:31;16.90;;;7.97;;
75297;SDS011;63896;45.990;18.688;2024-02-23T06:11:34;14.18;;;7.57;;
75297;SDS011;63896;45.990;18.688;2024-02-23T06:14:37;15.48;;;8.30;;
75297;SDS011;63896;45.990;18.688;2024-02-23T06:17:40;14.23;;;7.37;;
75297;SDS011;63896;45.990;18.688;2024-02-23T06:20:43;15.40;;;7.53;;
75297;SDS011;63896;45.990;18.688;2024-02-23T06:23:46;14.98;;;8.15;;
75297;SDS011;63896;45.990;18.688;2024-02-23T06:26:48;18.88;;;8.32;;
75297;SDS011;63896;45.990;18.688;2024-02-23T06:29:51;16.33;;;8.30;;
75297;SDS011;63896;45.990;18.688;2024-02-23T06:32:56;14.20;;;7.60;;
75297;SDS011;63896;45.990;18.688;2024-02-23T06:35:59;14.70;;;8.45;;
75297;SDS011;63896;45.990;18.688;2024-02-23T06:39:03;15.82;;;7.72;;
75297;SDS011;63896;45.990;18.688;2024-02-23T06:42:06;18.75;;;8.38;;
75297;SDS011;63896;45.990;18.688;2024-02-23T06:45:09;16.55;;;8.80;;
75297;SDS011;63896;45.990;18.688;2024-02-23T06:48:12;13.30;;;8.27;;
75297;SDS011;63896;45.990;18.688;2024-02-23T06:51:15;14.90;;;8.40;;
75297;SDS011;63896;45.990;18.688;2024-02-23T06:54:18;16.38;;;8.75;;
75297;SDS011;63896;45.990;18.688;2024-02-23T06:57:21;30.40;;;13.02;;
75297;SDS011;63896;45.990;18.688;2024-02-23T07:05:30;29.53;;;13.53;;
75297;SDS011;63896;45.990;18.688;2024-02-23T07:08:33;30.33;;;14.10;;
75297;SDS011;63896;45.990;18.688;2024-02-23T07:11:36;27.90;;;13.88;;
75297;SDS011;63896;45.990;18.688;2024-02-23T07:14:41;40.13;;;18.60;;
75297;SDS011;63896;45.990;18.688;2024-02-23T07:17:44;39.00;;;18.88;;
75297;SDS011;63896;45.990;18.688;2024-02-23T07:20:47;36.60;;;16.63;;
75297;SDS011;63896;45.990;18.688;2024-02-23T07:23:52;23.80;;;12.35;;
75297;SDS011;63896;45.990;18.688;2024-02-23T07:26:59;23.52;;;11.30;;
75297;SDS011;63896;45.990;18.688;2024-02-23T07:30:02;18.00;;;10.60;;
75297;SDS011;63896;45.990;18.688;2024-02-23T07:33:23;20.05;;;11.30;;
75297;SDS011;63896;45.990;18.688;2024-02-23T07:36:30;21.47;;;10.53;;
75297;SDS011;63896;45.990;18.688;2024-02-23T07:39:34;20.75;;;10.40;;
75297;SDS011;63896;45.990;18.688;2024-02-23T07:42:38;18.58;;;10.02;;
75297;SDS011;63896;45.990;18.688;2024-02-23T07:45:41;24.17;;;12.13;;
75297;SDS011;63896;45.990;18.688;2024-02-23T07:48:45;36.08;;;19.05;;
75297;SDS011;63896;45.990;18.688;2024-02-23T07:51:48;19.93;;;12.03;;
75297;SDS011;63896;45.990;18.688;2024-02-23T07:54:51;22.77;;;13.02;;
75297;SDS011;63896;45.990;18.688;2024-02-23T07:57:55;32.38;;;15.35;;
75297;SDS011;63896;45.990;18.688;2024-02-23T08:01:04;34.78;;;16.40;;
75297;SDS011;63896;45.990;18.688;2024-02-23T08:04:06;39.88;;;17.58;;
75297;SDS011;63896;45.990;18.688;2024-02-23T08:07:09;34.80;;;16.40;;
75297;SDS011;63896;45.990;18.688;2024-02-23T08:10:13;25.55;;;13.13;;
75297;SDS011;63896;45.990;18.688;2024-02-23T08:13:15;19.85;;;10.48;;
75297;SDS011;63896;45.990;18.688;2024-02-23T08:16:20;15.85;;;9.18;;
75297;SDS011;63896;45.990;18.688;2024-02-23T08:19:32;15.13;;;8.93;;
75297;SDS011;63896;45.990;18.688;2024-02-23T08:22:34;11.93;;;8.23;;
75297;SDS011;63896;45.990;18.688;2024-02-23T08:25:50;11.40;;;7.50;;
75297;SDS011;63896;45.990;18.688;2024-02-23T08:28:56;13.25;;;7.70;;
75297;SDS011;63896;45.990;18.688;2024-02-23T08:31:58;13.02;;;7.63;;
75297;SDS011;63896;45.990;18.688;2024-02-23T08:35:01;14.95;;;8.48;;
75297;SDS011;63896;45.990;18.688;2024-02-23T08:38:05;16.90;;;8.60;;
75297;SDS011;63896;45.990;18.688;2024-02-23T08:41:08;19.40;;;11.27;;
75297;SDS011;63896;45.990;18.688;2024-02-23T08:44:11;16.17;;;9.80;;
75297;SDS011;63896;45.990;18.688;2024-02-23T08:47:14;24.42;;;15.02;;
75297;SDS011;63896;45.990;18.688;2024-02-23T08:50:17;90.25;;;53.20;;
75297;SDS011;63896;45.990;18.688;2024-02-23T08:53:20;87.37;;;55.70;;
75297;SDS011;63896;45.990;18.688;2024-02-23T08:56:22;26.55;;;16.70;;
75297;SDS011;63896;45.990;18.688;2024-02-23T08:59:25;46.28;;;33.95;;
75297;SDS011;63896;45.990;18.688;2024-02-23T09:02:28;65.13;;;44.22;;
75297;SDS011;63896;45.990;18.688;2024-02-23T09:05:31;59.53;;;40.30;;
75297;SDS011;63896;45.990;18.688;2024-02-23T09:08:34;28.83;;;19.93;;
75297;SDS011;63896;45.990;18.688;2024-02-23T09:11:36;23.30;;;15.32;;
75297;SDS011;63896;45.990;18.688;2024-02-23T09:14:40;25.75;;;17.55;;
75297;SDS011;63896;45.990;18.688;2024-02-23T09:18:00;18.17;;;12.38;;
75297;SDS011;63896;45.990;18.688;2024-02-23T09:21:03;20.45;;;14.18;;
75297;SDS011;63896;45.990;18.688;2024-02-23T09:24:06;11.93;;;8.43;;
75297;SDS011;63896;45.990;18.688;2024-02-23T09:27:09;11.95;;;5.53;;
75297;SDS011;63896;45.990;18.688;2024-02-23T09:30:12;9.77;;;6.22;;
75297;SDS011;63896;45.990;18.688;2024-02-23T09:33:17;10.45;;;6.57;;
75297;SDS011;63896;45.990;18.688;2024-02-23T09:36:20;10.77;;;6.20;;
75297;SDS011;63896;45.990;18.688;2024-02-23T09:39:23;7.23;;;5.20;;
75297;SDS011;63896;45.990;18.688;2024-02-23T09:42:28;8.13;;;4.97;;
75297;SDS011;63896;45.990;18.688;2024-02-23T09:45:34;9.45;;;5.85;;
75297;SDS011;63896;45.990;18.688;2024-02-23T09:48:38;9.45;;;6.07;;
75297;SDS011;63896;45.990;18.688;2024-02-23T09:51:47;9.68;;;5.72;;
75297;SDS011;63896;45.990;18.688;2024-02-23T09:54:53;8.30;;;5.50;;
75297;SDS011;63896;45.990;18.688;2024-02-23T09:57:57;10.88;;;6.00;;
75297;SDS011;63896;45.990;18.688;2024-02-23T10:01:02;10.00;;;6.47;;
75297;SDS011;63896;45.990;18.688;2024-02-23T10:04:06;11.60;;;7.28;;
75297;SDS011;63896;45.990;18.688;2024-02-23T10:07:10;14.77;;;8.88;;
75297;SDS011;63896;45.990;18.688;2024-02-23T10:10:24;14.37;;;8.10;;
75297;SDS011;63896;45.990;18.688;2024-02-23T10:13:31;13.75;;;6.95;;
75297;SDS011;63896;45.990;18.688;2024-02-23T10:16:34;9.95;;;6.45;;
75297;SDS011;63896;45.990;18.688;2024-02-23T10:19:37;11.48;;;7.35;;
75297;SDS011;63896;45.990;18.688;2024-02-23T10:22:40;12.90;;;7.45;;
75297;SDS011;63896;45.990;18.688;2024-02-23T10:25:43;14.07;;;6.43;;
75297;SDS011;63896;45.990;18.688;2024-02-23T10:28:45;17.42;;;8.05;;
75297;SDS011;63896;45.990;18.688;2024-02-23T10:31:53;16.88;;;7.40;;
75297;SDS011;63896;45.990;18.688;2024-02-23T10:35:00;11.30;;;6.70;;
75297;SDS011;63896;45.990;18.688;2024-02-23T10:38:08;10.27;;;6.40;;
75297;SDS011;63896;45.990;18.688;2024-02-23T10:41:14;10.80;;;6.43;;
75297;SDS011;63896;45.990;18.688;2024-02-23T10:44:20;15.35;;;8.40;;
75297;SDS011;63896;45.990;18.688;2024-02-23T10:47:23;10.25;;;6.45;;
75297;SDS011;63896;45.990;18.688;2024-02-23T10:50:27;7.90;;;5.45;;
75297;SDS011;63896;45.990;18.688;2024-02-23T10:53:33;8.50;;;5.00;;
75297;SDS011;63896;45.990;18.688;2024-02-23T10:56:37;8.43;;;4.97;;
75297;SDS011;63896;45.990;18.688;2024-02-23T10:59:40;7.80;;;4.70;;
75297;SDS011;63896;45.990;18.688;2024-02-23T11:02:45;8.25;;;4.68;;
75297;SDS011;63896;45.990;18.688;2024-02-23T11:05:51;13.50;;;5.85;;
75297;SDS011;63896;45.990;18.688;2024-02-23T11:09:11;11.98;;;6.50;;
75297;SDS011;63896;45.990;18.688;2024-02-23T11:12:22;9.93;;;4.80;;
75297;SDS011;63896;45.990;18.688;2024-02-23T11:15:27;7.13;;;4.88;;
75297;SDS011;63896;45.990;18.688;2024-02-23T11:18:31;8.70;;;5.15;;
75297;SDS011;63896;45.990;18.688;2024-02-23T11:21:37;12.05;;;4.95;;
75297;SDS011;63896;45.990;18.688;2024-02-23T11:24:43;11.23;;;5.85;;
75297;SDS011;63896;45.990;18.688;2024-02-23T11:27:50;15.47;;;7.73;;
75297;SDS011;63896;45.990;18.688;2024-02-23T11:30:53;16.52;;;8.13;;
75297;SDS011;63896;45.990;18.688;2024-02-23T11:33:57;14.45;;;7.93;;
75297;SDS011;63896;45.990;18.688;2024-02-23T11:37:06;14.68;;;6.85;;
75297;SDS011;63896;45.990;18.688;2024-02-23T11:40:12;14.70;;;7.68;;
75297;SDS011;63896;45.990;18.688;2024-02-23T11:43:16;16.50;;;7.67;;
75297;SDS011;63896;45.990;18.688;2024-02-23T11:46:19;15.82;;;8.93;;
75297;SDS011;63896;45.990;18.688;2024-02-23T11:49:27;14.57;;;7.57;;
75297;SDS011;63896;45.990;18.688;2024-02-23T11:52:30;15.48;;;7.22;;
75297;SDS011;63896;45.990;18.688;2024-02-23T11:55:34;20.08;;;9.52;;
75297;SDS011;63896;45.990;18.688;2024-02-23T11:58:38;21.17;;;11.20;;
75297;SDS011;63896;45.990;18.688;2024-02-23T12:01:41;23.65;;;10.35;;
75297;SDS011;63896;45.990;18.688;2024-02-23T12:04:45;21.20;;;10.98;;
75297;SDS011;63896;45.990;18.688;2024-02-23T12:07:50;20.52;;;9.57;;
75297;SDS011;63896;45.990;18.688;2024-02-23T12:10:54;26.80;;;10.82;;
75297;SDS011;63896;45.990;18.688;2024-02-23T12:13:57;32.53;;;15.70;;
75297;SDS011;63896;45.990;18.688;2024-02-23T12:17:02;31.83;;;13.10;;
75297;SDS011;63896;45.990;18.688;2024-02-23T12:20:09;28.25;;;11.27;;
75297;SDS011;63896;45.990;18.688;2024-02-23T12:23:12;16.17;;;8.20;;
75297;SDS011;63896;45.990;18.688;2024-02-23T12:26:17;14.30;;;8.63;;
75297;SDS011;63896;45.990;18.688;2024-02-23T12:29:21;18.97;;;10.63;;
75297;SDS011;63896;45.990;18.688;2024-02-23T12:32:25;25.23;;;11.45;;
75297;SDS011;63896;45.990;18.688;2024-02-23T12:35:28;25.38;;;10.50;;
75297;SDS011;63896;45.990;18.688;2024-02-23T12:38:31;25.27;;;10.25;;
75297;SDS011;63896;45.990;18.688;2024-02-23T12:41:34;19.52;;;11.13;;
75297;SDS011;63896;45.990;18.688;2024-02-23T12:44:37;18.40;;;9.30;;
75297;SDS011;63896;45.990;18.688;2024-02-23T12:47:40;14.30;;;8.70;;
75297;SDS011;63896;45.990;18.688;2024-02-23T12:50:43;10.13;;;5.43;;
75297;SDS011;63896;45.990;18.688;2024-02-23T12:53:49;11.77;;;5.97;;
75297;SDS011;63896;45.990;18.688;2024-02-23T12:56:52;9.98;;;6.60;;
75297;SDS011;63896;45.990;18.688;2024-02-23T12:59:55;13.27;;;6.40;;
75297;SDS011;63896;45.990;18.688;2024-02-23T13:02:58;15.65;;;8.80;;
75297;SDS011;63896;45.990;18.688;2024-02-23T13:06:01;15.05;;;7.63;;
75297;SDS011;63896;45.990;18.688;2024-02-23T13:09:05;15.60;;;8.05;;
75297;SDS011;63896;45.990;18.688;2024-02-23T13:12:11;11.00;;;6.72;;
75297;SDS011;63896;45.990;18.688;2024-02-23T13:15:14;13.97;;;7.10;;
75297;SDS011;63896;45.990;18.688;2024-02-23T13:18:21;14.60;;;6.15;;
75297;SDS011;63896;45.990;18.688;2024-02-23T13:21:25;10.55;;;5.50;;
75297;SDS011;63896;45.990;18.688;2024-02-23T13:24:28;7.75;;;4.65;;
75297;SDS011;63896;45.990;18.688;2024-02-23T13:27:31;15.10;;;7.95;;
75297;SDS011;63896;45.990;18.688;2024-02-23T13:30:34;14.60;;;7.97;;
75297;SDS011;63896;45.990;18.688;2024-02-23T13:33:38;20.70;;;10.45;;
75297;SDS011;63896;45.990;18.688;2024-02-23T13:36:41;29.30;;;14.27;;
75297;SDS011;63896;45.990;18.688;2024-02-23T13:39:44;29.55;;;15.13;;
75297;SDS011;63896;45.990;18.688;2024-02-23T13:42:47;20.00;;;10.52;;
75297;SDS011;63896;45.990;18.688;2024-02-23T13:45:55;15.00;;;8.73;;
75297;SDS011;63896;45.990;18.688;2024-02-23T13:49:05;15.90;;;9.10;;
75297;SDS011;63896;45.990;18.688;2024-02-23T13:52:27;15.68;;;8.52;;
75297;SDS011;63896;45.990;18.688;2024-02-23T13:55:30;18.48;;;10.57;;
75297;SDS011;63896;45.990;18.688;2024-02-23T13:58:33;28.40;;;15.45;;
75297;SDS011;63896;45.990;18.688;2024-02-23T14:01:36;23.20;;;14.30;;
75297;SDS011;63896;45.990;18.688;2024-02-23T14:04:39;35.55;;;18.73;;
75297;SDS011;63896;45.990;18.688;2024-02-23T14:07:42;30.65;;;18.08;;
75297;SDS011;63896;45.990;18.688;2024-02-23T14:10:45;12.10;;;7.30;;
75297;SDS011;63896;45.990;18.688;2024-02-23T14:13:48;18.45;;;10.07;;
75297;SDS011;63896;45.990;18.688;2024-02-23T14:16:53;19.23;;;8.77;;
75297;SDS011;63896;45.990;18.688;2024-02-23T14:19:56;25.02;;;11.80;;
75297;SDS011;63896;45.990;18.688;2024-02-23T14:22:59;23.73;;;12.25;;
75297;SDS011;63896;45.990;18.688;2024-02-23T14:26:03;19.38;;;9.70;;
75297;SDS011;63896;45.990;18.688;2024-02-23T14:29:08;21.75;;;12.23;;
75297;SDS011;63896;45.990;18.688;2024-02-23T14:32:15;29.60;;;15.40;;
75297;SDS011;63896;45.990;18.688;2024-02-23T14:35:21;20.92;;;11.80;;
75297;SDS011;63896;45.990;18.688;2024-02-23T14:38:24;20.48;;;11.57;;
75297;SDS011;63896;45.990;18.688;2024-02-23T14:41:27;25.20;;;11.43;;
75297;SDS011;63896;45.990;18.688;2024-02-23T14:44:30;8.07;;;4.40;;
75297;SDS011;63896;45.990;18.688;2024-02-23T14:47:33;12.20;;;7.30;;
75297;SDS011;63896;45.990;18.688;2024-02-23T14:50:47;13.75;;;7.53;;
75297;SDS011;63896;45.990;18.688;2024-02-23T14:53:50;23.52;;;10.63;;
75297;SDS011;63896;45.990;18.688;2024-02-23T14:56:53;19.63;;;10.10;;
75297;SDS011;63896;45.990;18.688;2024-02-23T14:59:56;14.32;;;7.90;;
75297;SDS011;63896;45.990;18.688;2024-02-23T15:02:59;13.80;;;6.83;;
75297;SDS011;63896;45.990;18.688;2024-02-23T15:06:02;11.00;;;5.43;;
75297;SDS011;63896;45.990;18.688;2024-02-23T15:09:05;12.18;;;6.30;;
75297;SDS011;63896;45.990;18.688;2024-02-23T15:12:08;8.18;;;5.35;;
75297;SDS011;63896;45.990;18.688;2024-02-23T15:15:11;8.52;;;4.78;;
75297;SDS011;63896;45.990;18.688;2024-02-23T15:18:14;8.90;;;4.67;;
75297;SDS011;63896;45.990;18.688;2024-02-23T15:21:17;18.80;;;8.20;;
75297;SDS011;63896;45.990;18.688;2024-02-23T15:24:20;17.58;;;7.22;;
75297;SDS011;63896;45.990;18.688;2024-02-23T15:27:26;12.48;;;6.70;;
75297;SDS011;63896;45.990;18.688;2024-02-23T15:30:29;19.92;;;8.88;;
75297;SDS011;63896;45.990;18.688;2024-02-23T15:33:32;18.27;;;8.20;;
75297;SDS011;63896;45.990;18.688;2024-02-23T15:36:36;18.15;;;8.70;;
75297;SDS011;63896;45.990;18.688;2024-02-23T15:39:40;20.85;;;9.70;;
75297;SDS011;63896;45.990;18.688;2024-02-23T15:42:42;29.55;;;13.82;;
75297;SDS011;63896;45.990;18.688;2024-02-23T15:45:45;21.77;;;11.05;;
75297;SDS011;63896;45.990;18.688;2024-02-23T15:48:48;13.03;;;7.33;;
75297;SDS011;63896;45.990;18.688;2024-02-23T15:51:51;14.85;;;7.75;;
75297;SDS011;63896;45.990;18.688;2024-02-23T15:55:02;15.00;;;5.97;;
75297;SDS011;63896;45.990;18.688;2024-02-23T15:58:06;21.00;;;9.73;;
75297;SDS011;63896;45.990;18.688;2024-02-23T16:01:09;32.85;;;14.75;;
75297;SDS011;63896;45.990;18.688;2024-02-23T16:04:12;29.17;;;11.23;;
75297;SDS011;63896;45.990;18.688;2024-02-23T16:07:15;26.67;;;12.85;;
75297;SDS011;63896;45.990;18.688;2024-02-23T16:10:18;39.42;;;19.23;;
75297;SDS011;63896;45.990;18.688;2024-02-23T16:13:21;22.42;;;12.02;;
75297;SDS011;63896;45.990;18.688;2024-02-23T16:16:23;13.95;;;7.00;;
75297;SDS011;63896;45.990;18.688;2024-02-23T16:19:27;14.13;;;7.50;;
75297;SDS011;63896;45.990;18.688;2024-02-23T16:22:29;15.35;;;7.13;;
75297;SDS011;63896;45.990;18.688;2024-02-23T16:25:32;16.75;;;7.68;;
75297;SDS011;63896;45.990;18.688;2024-02-23T16:28:35;10.52;;;4.90;;
75297;SDS011;63896;45.990;18.688;2024-02-23T16:31:38;12.93;;;6.18;;
75297;SDS011;63896;45.990;18.688;2024-02-23T16:34:44;13.27;;;7.30;;
75297;SDS011;63896;45.990;18.688;2024-02-23T16:37:47;28.38;;;11.15;;
75297;SDS011;63896;45.990;18.688;2024-02-23T16:40:49;39.15;;;14.57;;
75297;SDS011;63896;45.990;18.688;2024-02-23T16:43:52;17.65;;;8.32;;
75297;SDS011;63896;45.990;18.688;2024-02-23T16:46:57;22.08;;;9.60;;
75297;SDS011;63896;45.990;18.688;2024-02-23T16:50:00;23.00;;;9.83;;
75297;SDS011;63896;45.990;18.688;2024-02-23T16:53:03;16.88;;;7.22;;
75297;SDS011;63896;45.990;18.688;2024-02-23T16:56:06;16.10;;;8.30;;
75297;SDS011;63896;45.990;18.688;2024-02-23T16:59:09;17.10;;;8.05;;
75297;SDS011;63896;45.990;18.688;2024-02-23T17:02:12;13.13;;;7.35;;
75297;SDS011;63896;45.990;18.688;2024-02-23T17:05:15;11.00;;;6.00;;
75297;SDS011;63896;45.990;18.688;2024-02-23T17:08:18;12.48;;;7.03;;
75297;SDS011;63896;45.990;18.688;2024-02-23T17:11:21;11.68;;;6.18;;
75297;SDS011;63896;45.990;18.688;2024-02-23T17:14:24;13.20;;;6.22;;
75297;SDS011;63896;45.990;18.688;2024-02-23T17:17:27;8.80;;;4.60;;
75297;SDS011;63896;45.990;18.688;2024-02-23T17:20:30;12.57;;;6.40;;
75297;SDS011;63896;45.990;18.688;2024-02-23T17:23:33;13.65;;;5.50;;
75297;SDS011;63896;45.990;18.688;2024-02-23T17:26:36;15.20;;;7.32;;
75297;SDS011;63896;45.990;18.688;2024-02-23T17:29:39;14.20;;;6.57;;
75297;SDS011;63896;45.990;18.688;2024-02-23T17:32:41;13.77;;;7.55;;
75297;SDS011;63896;45.990;18.688;2024-02-23T17:35:45;13.60;;;6.63;;
75297;SDS011;63896;45.990;18.688;2024-02-23T17:38:49;11.75;;;6.20;;
75297;SDS011;63896;45.990;18.688;2024-02-23T17:41:52;12.27;;;6.28;;
75297;SDS011;63896;45.990;18.688;2024-02-23T17:44:55;12.23;;;6.25;;
75297;SDS011;63896;45.990;18.688;2024-02-23T17:47:58;11.60;;;5.97;;
75297;SDS011;63896;45.990;18.688;2024-02-23T17:51:01;13.90;;;5.23;;
75297;SDS011;63896;45.990;18.688;2024-02-23T17:54:04;12.60;;;6.05;;
75297;SDS011;63896;45.990;18.688;2024-02-23T17:57:07;12.52;;;5.72;;
75297;SDS011;63896;45.990;18.688;2024-02-23T18:00:10;13.73;;;6.78;;
75297;SDS011;63896;45.990;18.688;2024-02-23T18:03:13;13.63;;;7.88;;